sensor_id;sensor_type;location;lat;lon;timestamp;P1;durP1;ratioP1;P2;durP2;ratioP2
69207;SDS011;56321;47.662;8.878;2023-02-01T00:00:19;7.90;;;2.80;;
69207;SDS011;56321;47.662;8.878;2023-02-01T00:02:45;8.27;;;2.80;;
69207;SDS011;56321;47.662;8.878;2023-02-01T00:05:10;8.02;;;2.65;;
69207;SDS011;56321;47.662;8.878;2023-02-01T00:07:36;7.83;;;2.60;;
69207;SDS011;56321;47.662;8.878;2023-02-01T00:10:02;8.73;;;2.85;;
69207;SDS011;56321;47.662;8.878;2023-02-01T00:12:29;7.53;;;2.70;;
69207;SDS011;56321;47.662;8.878;2023-02-01T00:14:55;7.82;;;2.80;;
69207;SDS011;56321;47.662;8.878;2023-02-01T00:17:20;7.57;;;2.60;;
69207;SDS011;56321;47.662;8.878;2023-02-01T00:19:45;8.23;;;3.00;;
69207;SDS011;56321;47.662;8.878;2023-02-01T00:22:11;8.57;;;2.70;;
69207;SDS011;56321;47.662;8.878;2023-02-01T00:24:36;8.43;;;2.50;;
69207;SDS011;56321;47.662;8.878;2023-02-01T00:27:01;8.73;;;2.83;;
69207;SDS011;56321;47.662;8.878;2023-02-01T00:29:27;7.60;;;2.80;;
69207;SDS011;56321;47.662;8.878;2023-02-01T00:31:52;9.47;;;2.70;;
69207;SDS011;56321;47.662;8.878;2023-02-01T00:34:18;8.50;;;2.70;;
69207;SDS011;56321;47.662;8.878;2023-02-01T00:36:44;7.00;;;2.60;;
69207;SDS011;56321;47.662;8.878;2023-02-01T00:39:10;8.18;;;2.70;;
69207;SDS011;56321;47.662;8.878;2023-02-01T00:41:35;7.90;;;2.77;;
69207;SDS011;56321;47.662;8.878;2023-02-01T00:44:01;7.17;;;2.50;;
69207;SDS011;56321;47.662;8.878;2023-02-01T00:46:27;8.35;;;2.95;;
69207;SDS011;56321;47.662;8.878;2023-02-01T00:48:52;8.83;;;3.00;;
69207;SDS011;56321;47.662;8.878;2023-02-01T00:51:19;8.23;;;2.60;;
69207;SDS011;56321;47.662;8.878;2023-02-01T00:53:46;7.68;;;2.90;;
69207;SDS011;56321;47.662;8.878;2023-02-01T00:56:12;8.70;;;2.30;;
69207;SDS011;56321;47.662;8.878;2023-02-01T00:58:38;8.07;;;2.50;;
69207;SDS011;56321;47.662;8.878;2023-02-01T01:03:29;8.03;;;2.67;;
69207;SDS011;56321;47.662;8.878;2023-02-01T01:05:58;7.90;;;2.70;;
69207;SDS011;56321;47.662;8.878;2023-02-01T01:08:24;9.88;;;3.15;;
69207;SDS011;56321;47.662;8.878;2023-02-01T01:10:50;7.80;;;2.67;;
69207;SDS011;56321;47.662;8.878;2023-02-01T01:13:15;7.67;;;2.70;;
69207;SDS011;56321;47.662;8.878;2023-02-01T01:15:40;8.93;;;3.00;;
69207;SDS011;56321;47.662;8.878;2023-02-01T01:18:06;8.38;;;2.85;;
69207;SDS011;56321;47.662;8.878;2023-02-01T01:20:36;7.82;;;2.60;;
69207;SDS011;56321;47.662;8.878;2023-02-01T01:23:03;8.20;;;3.20;;
69207;SDS011;56321;47.662;8.878;2023-02-01T01:25:29;9.10;;;3.17;;
69207;SDS011;56321;47.662;8.878;2023-02-01T01:27:54;9.73;;;3.20;;
69207;SDS011;56321;47.662;8.878;2023-02-01T01:30:20;8.65;;;3.00;;
69207;SDS011;56321;47.662;8.878;2023-02-01T01:32:45;8.20;;;3.03;;
69207;SDS011;56321;47.662;8.878;2023-02-01T01:35:11;8.67;;;3.20;;
69207;SDS011;56321;47.662;8.878;2023-02-01T01:37:36;8.77;;;3.20;;
69207;SDS011;56321;47.662;8.878;2023-02-01T01:40:05;9.07;;;3.15;;
69207;SDS011;56321;47.662;8.878;2023-02-01T01:42:38;8.60;;;2.90;;
69207;SDS011;56321;47.662;8.878;2023-02-01T01:45:18;8.03;;;2.90;;
69207;SDS011;56321;47.662;8.878;2023-02-01T01:47:48;8.18;;;3.03;;
69207;SDS011;56321;47.662;8.878;2023-02-01T01:50:27;9.57;;;3.10;;
69207;SDS011;56321;47.662;8.878;2023-02-01T01:52:57;9.90;;;2.97;;
69207;SDS011;56321;47.662;8.878;2023-02-01T01:55:24;8.80;;;3.47;;
69207;SDS011;56321;47.662;8.878;2023-02-01T01:57:54;9.13;;;3.43;;
69207;SDS011;56321;47.662;8.878;2023-02-01T02:00:23;8.93;;;3.28;;
69207;SDS011;56321;47.662;8.878;2023-02-01T02:02:51;8.87;;;3.50;;
69207;SDS011;56321;47.662;8.878;2023-02-01T02:05:21;8.52;;;3.25;;
69207;SDS011;56321;47.662;8.878;2023-02-01T02:07:48;9.83;;;3.30;;
69207;SDS011;56321;47.662;8.878;2023-02-01T02:10:15;8.98;;;3.25;;
69207;SDS011;56321;47.662;8.878;2023-02-01T02:12:43;8.13;;;3.20;;
69207;SDS011;56321;47.662;8.878;2023-02-01T02:15:12;8.80;;;3.00;;
69207;SDS011;56321;47.662;8.878;2023-02-01T02:26:04;10.55;;;3.60;;
69207;SDS011;56321;47.662;8.878;2023-02-01T02:34:14;9.03;;;3.50;;
69207;SDS011;56321;47.662;8.878;2023-02-01T02:47:52;8.80;;;3.60;;
69207;SDS011;56321;47.662;8.878;2023-02-01T02:50:44;8.63;;;3.25;;
69207;SDS011;56321;47.662;8.878;2023-02-01T02:53:39;9.55;;;3.92;;
69207;SDS011;56321;47.662;8.878;2023-02-01T02:56:35;9.43;;;3.45;;
69207;SDS011;56321;47.662;8.878;2023-02-01T02:59:21;9.68;;;3.67;;
69207;SDS011;56321;47.662;8.878;2023-02-01T03:02:09;9.70;;;3.53;;
69207;SDS011;56321;47.662;8.878;2023-02-01T03:04:54;10.50;;;4.00;;
69207;SDS011;56321;47.662;8.878;2023-02-01T03:10:10;9.95;;;3.70;;
69207;SDS011;56321;47.662;8.878;2023-02-01T03:12:47;9.93;;;3.90;;
69207;SDS011;56321;47.662;8.878;2023-02-01T03:15:34;9.33;;;3.77;;
69207;SDS011;56321;47.662;8.878;2023-02-01T03:18:07;10.35;;;4.00;;
69207;SDS011;56321;47.662;8.878;2023-02-01T03:20:39;9.95;;;3.65;;
69207;SDS011;56321;47.662;8.878;2023-02-01T03:23:09;10.80;;;3.85;;
69207;SDS011;56321;47.662;8.878;2023-02-01T03:25:38;10.02;;;3.88;;
69207;SDS011;56321;47.662;8.878;2023-02-01T03:28:06;9.93;;;3.87;;
69207;SDS011;56321;47.662;8.878;2023-02-01T03:30:37;10.63;;;4.07;;
69207;SDS011;56321;47.662;8.878;2023-02-01T03:33:07;11.13;;;4.18;;
69207;SDS011;56321;47.662;8.878;2023-02-01T03:41:25;10.15;;;4.18;;
69207;SDS011;56321;47.662;8.878;2023-02-01T03:46:32;10.63;;;4.15;;
69207;SDS011;56321;47.662;8.878;2023-02-01T03:49:03;11.70;;;3.92;;
69207;SDS011;56321;47.662;8.878;2023-02-01T03:51:32;10.37;;;3.80;;
69207;SDS011;56321;47.662;8.878;2023-02-01T03:53:59;10.07;;;3.92;;
69207;SDS011;56321;47.662;8.878;2023-02-01T03:56:27;10.07;;;4.22;;
69207;SDS011;56321;47.662;8.878;2023-02-01T03:58:54;10.77;;;4.13;;
69207;SDS011;56321;47.662;8.878;2023-02-01T04:01:24;10.32;;;3.90;;
69207;SDS011;56321;47.662;8.878;2023-02-01T04:03:50;10.93;;;4.10;;
69207;SDS011;56321;47.662;8.878;2023-02-01T04:06:16;10.43;;;4.22;;
69207;SDS011;56321;47.662;8.878;2023-02-01T04:08:41;10.53;;;4.27;;
69207;SDS011;56321;47.662;8.878;2023-02-01T04:11:07;11.80;;;4.33;;
69207;SDS011;56321;47.662;8.878;2023-02-01T04:13:32;11.23;;;4.30;;
69207;SDS011;56321;47.662;8.878;2023-02-01T04:15:57;11.40;;;4.40;;
69207;SDS011;56321;47.662;8.878;2023-02-01T04:18:23;10.00;;;4.20;;
69207;SDS011;56321;47.662;8.878;2023-02-01T04:20:48;10.30;;;4.40;;
69207;SDS011;56321;47.662;8.878;2023-02-01T04:23:13;12.10;;;4.60;;
69207;SDS011;56321;47.662;8.878;2023-02-01T04:25:40;12.18;;;4.97;;
69207;SDS011;56321;47.662;8.878;2023-02-01T04:28:06;11.50;;;4.90;;
69207;SDS011;56321;47.662;8.878;2023-02-01T04:30:31;10.27;;;4.13;;
69207;SDS011;56321;47.662;8.878;2023-02-01T04:32:57;10.18;;;4.30;;
69207;SDS011;56321;47.662;8.878;2023-02-01T04:35:22;10.17;;;4.47;;
69207;SDS011;56321;47.662;8.878;2023-02-01T04:37:47;11.37;;;4.60;;
69207;SDS011;56321;47.662;8.878;2023-02-01T04:40:13;11.37;;;4.33;;
69207;SDS011;56321;47.662;8.878;2023-02-01T04:42:38;11.40;;;4.43;;
69207;SDS011;56321;47.662;8.878;2023-02-01T04:45:04;11.00;;;4.70;;
69207;SDS011;56321;47.662;8.878;2023-02-01T04:47:29;11.15;;;5.03;;
69207;SDS011;56321;47.662;8.878;2023-02-01T04:49:55;10.23;;;4.47;;
69207;SDS011;56321;47.662;8.878;2023-02-01T04:52:20;10.80;;;4.40;;
69207;SDS011;56321;47.662;8.878;2023-02-01T04:54:46;10.93;;;4.63;;
69207;SDS011;56321;47.662;8.878;2023-02-01T04:57:11;11.40;;;4.90;;
69207;SDS011;56321;47.662;8.878;2023-02-01T04:59:38;11.77;;;5.10;;
69207;SDS011;56321;47.662;8.878;2023-02-01T05:02:04;11.55;;;5.03;;
69207;SDS011;56321;47.662;8.878;2023-02-01T05:04:29;11.87;;;4.60;;
69207;SDS011;56321;47.662;8.878;2023-02-01T05:06:54;12.47;;;5.50;;
69207;SDS011;56321;47.662;8.878;2023-02-01T05:09:20;12.40;;;5.10;;
69207;SDS011;56321;47.662;8.878;2023-02-01T05:11:46;10.70;;;4.90;;
69207;SDS011;56321;47.662;8.878;2023-02-01T05:14:30;13.32;;;5.40;;
69207;SDS011;56321;47.662;8.878;2023-02-01T05:16:56;12.90;;;5.30;;
69207;SDS011;56321;47.662;8.878;2023-02-01T05:19:21;10.77;;;5.00;;
69207;SDS011;56321;47.662;8.878;2023-02-01T05:21:46;13.07;;;5.33;;
69207;SDS011;56321;47.662;8.878;2023-02-01T05:24:12;13.30;;;5.10;;
69207;SDS011;56321;47.662;8.878;2023-02-01T05:26:47;11.90;;;5.10;;
69207;SDS011;56321;47.662;8.878;2023-02-01T05:29:13;10.77;;;4.93;;
69207;SDS011;56321;47.662;8.878;2023-02-01T05:31:39;11.70;;;5.50;;
69207;SDS011;56321;47.662;8.878;2023-02-01T05:34:04;11.10;;;5.03;;
69207;SDS011;56321;47.662;8.878;2023-02-01T05:36:31;12.82;;;5.85;;
69207;SDS011;56321;47.662;8.878;2023-02-01T05:38:56;11.55;;;5.28;;
69207;SDS011;56321;47.662;8.878;2023-02-01T05:41:22;11.77;;;5.30;;
69207;SDS011;56321;47.662;8.878;2023-02-01T05:43:47;13.80;;;5.10;;
69207;SDS011;56321;47.662;8.878;2023-02-01T05:46:13;13.13;;;5.60;;
69207;SDS011;56321;47.662;8.878;2023-02-01T05:48:39;11.77;;;4.93;;
69207;SDS011;56321;47.662;8.878;2023-02-01T05:51:05;12.10;;;5.43;;
69207;SDS011;56321;47.662;8.878;2023-02-01T05:53:30;11.43;;;5.13;;
69207;SDS011;56321;47.662;8.878;2023-02-01T05:55:55;11.80;;;4.90;;
69207;SDS011;56321;47.662;8.878;2023-02-01T05:58:21;10.93;;;4.77;;
69207;SDS011;56321;47.662;8.878;2023-02-01T06:00:46;12.03;;;5.10;;
69207;SDS011;56321;47.662;8.878;2023-02-01T06:03:11;10.80;;;4.80;;
69207;SDS011;56321;47.662;8.878;2023-02-01T06:05:37;12.33;;;5.40;;
69207;SDS011;56321;47.662;8.878;2023-02-01T06:08:02;11.43;;;4.70;;
69207;SDS011;56321;47.662;8.878;2023-02-01T06:10:27;10.30;;;4.47;;
69207;SDS011;56321;47.662;8.878;2023-02-01T06:12:53;9.97;;;3.93;;
69207;SDS011;56321;47.662;8.878;2023-02-01T06:15:18;10.30;;;4.50;;
69207;SDS011;56321;47.662;8.878;2023-02-01T06:17:44;10.07;;;4.57;;
69207;SDS011;56321;47.662;8.878;2023-02-01T06:20:10;10.93;;;5.10;;
69207;SDS011;56321;47.662;8.878;2023-02-01T06:22:37;11.20;;;4.60;;
69207;SDS011;56321;47.662;8.878;2023-02-01T06:25:03;9.80;;;4.07;;
69207;SDS011;56321;47.662;8.878;2023-02-01T06:27:29;12.53;;;4.57;;
69207;SDS011;56321;47.662;8.878;2023-02-01T06:29:54;12.60;;;4.55;;
69207;SDS011;56321;47.662;8.878;2023-02-01T06:32:20;10.73;;;4.43;;
69207;SDS011;56321;47.662;8.878;2023-02-01T06:34:45;10.93;;;4.87;;
69207;SDS011;56321;47.662;8.878;2023-02-01T06:37:11;10.77;;;4.93;;
69207;SDS011;56321;47.662;8.878;2023-02-01T06:39:36;11.13;;;4.77;;
69207;SDS011;56321;47.662;8.878;2023-02-01T06:42:02;10.33;;;4.27;;
69207;SDS011;56321;47.662;8.878;2023-02-01T06:44:27;12.80;;;4.93;;
69207;SDS011;56321;47.662;8.878;2023-02-01T06:46:53;11.23;;;4.90;;
69207;SDS011;56321;47.662;8.878;2023-02-01T06:49:19;11.48;;;5.05;;
69207;SDS011;56321;47.662;8.878;2023-02-01T06:51:45;11.67;;;5.30;;
69207;SDS011;56321;47.662;8.878;2023-02-01T06:54:10;11.83;;;5.17;;
69207;SDS011;56321;47.662;8.878;2023-02-01T06:56:35;11.53;;;5.40;;
69207;SDS011;56321;47.662;8.878;2023-02-01T06:59:03;10.70;;;5.03;;
69207;SDS011;56321;47.662;8.878;2023-02-01T07:01:29;12.23;;;5.35;;
69207;SDS011;56321;47.662;8.878;2023-02-01T07:03:54;11.67;;;5.10;;
69207;SDS011;56321;47.662;8.878;2023-02-01T07:06:19;11.03;;;5.30;;
69207;SDS011;56321;47.662;8.878;2023-02-01T07:08:45;12.73;;;5.30;;
69207;SDS011;56321;47.662;8.878;2023-02-01T07:11:11;11.40;;;5.00;;
69207;SDS011;56321;47.662;8.878;2023-02-01T07:13:38;11.10;;;5.05;;
69207;SDS011;56321;47.662;8.878;2023-02-01T07:16:05;11.07;;;5.13;;
69207;SDS011;56321;47.662;8.878;2023-02-01T07:18:32;12.50;;;4.90;;
69207;SDS011;56321;47.662;8.878;2023-02-01T07:20:58;13.57;;;5.80;;
69207;SDS011;56321;47.662;8.878;2023-02-01T07:23:24;11.88;;;5.13;;
69207;SDS011;56321;47.662;8.878;2023-02-01T07:26:00;11.47;;;4.70;;
69207;SDS011;56321;47.662;8.878;2023-02-01T07:28:28;10.50;;;4.40;;
69207;SDS011;56321;47.662;8.878;2023-02-01T07:30:54;11.55;;;5.53;;
69207;SDS011;56321;47.662;8.878;2023-02-01T07:33:23;10.77;;;4.50;;
69207;SDS011;56321;47.662;8.878;2023-02-01T07:35:49;11.60;;;4.35;;
69207;SDS011;56321;47.662;8.878;2023-02-01T07:38:15;10.03;;;4.07;;
69207;SDS011;56321;47.662;8.878;2023-02-01T07:40:42;10.68;;;4.22;;
69207;SDS011;56321;47.662;8.878;2023-02-01T07:43:07;11.17;;;4.40;;
69207;SDS011;56321;47.662;8.878;2023-02-01T07:45:33;10.90;;;3.85;;
69207;SDS011;56321;47.662;8.878;2023-02-01T07:47:59;10.47;;;4.07;;
69207;SDS011;56321;47.662;8.878;2023-02-01T07:50:25;12.15;;;4.40;;
69207;SDS011;56321;47.662;8.878;2023-02-01T07:52:50;10.90;;;4.40;;
69207;SDS011;56321;47.662;8.878;2023-02-01T07:55:16;9.70;;;4.07;;
69207;SDS011;56321;47.662;8.878;2023-02-01T07:57:41;10.13;;;4.60;;
69207;SDS011;56321;47.662;8.878;2023-02-01T08:00:07;10.70;;;4.65;;
69207;SDS011;56321;47.662;8.878;2023-02-01T08:02:52;11.07;;;4.90;;
69207;SDS011;56321;47.662;8.878;2023-02-01T08:05:17;12.25;;;5.35;;
69207;SDS011;56321;47.662;8.878;2023-02-01T08:07:42;13.17;;;5.63;;
69207;SDS011;56321;47.662;8.878;2023-02-01T08:10:08;13.27;;;5.37;;
69207;SDS011;56321;47.662;8.878;2023-02-01T08:12:36;12.73;;;5.47;;
69207;SDS011;56321;47.662;8.878;2023-02-01T08:15:02;13.23;;;6.13;;
69207;SDS011;56321;47.662;8.878;2023-02-01T08:17:28;13.35;;;6.00;;
69207;SDS011;56321;47.662;8.878;2023-02-01T08:19:54;15.00;;;5.90;;
69207;SDS011;56321;47.662;8.878;2023-02-01T08:22:19;13.70;;;5.95;;
69207;SDS011;56321;47.662;8.878;2023-02-01T08:24:47;14.67;;;6.13;;
69207;SDS011;56321;47.662;8.878;2023-02-01T08:27:13;13.18;;;5.70;;
69207;SDS011;56321;47.662;8.878;2023-02-01T08:29:38;13.00;;;5.67;;
69207;SDS011;56321;47.662;8.878;2023-02-01T08:32:04;15.07;;;5.82;;
69207;SDS011;56321;47.662;8.878;2023-02-01T08:34:29;13.73;;;6.10;;
69207;SDS011;56321;47.662;8.878;2023-02-01T08:36:55;14.57;;;5.97;;
69207;SDS011;56321;47.662;8.878;2023-02-01T08:39:23;14.43;;;6.35;;
69207;SDS011;56321;47.662;8.878;2023-02-01T08:41:49;13.93;;;6.03;;
69207;SDS011;56321;47.662;8.878;2023-02-01T08:44:35;15.07;;;6.03;;
69207;SDS011;56321;47.662;8.878;2023-02-01T08:47:01;14.38;;;6.50;;
69207;SDS011;56321;47.662;8.878;2023-02-01T08:49:27;16.15;;;6.70;;
69207;SDS011;56321;47.662;8.878;2023-02-01T08:51:52;13.57;;;6.23;;
69207;SDS011;56321;47.662;8.878;2023-02-01T08:54:18;14.53;;;6.87;;
69207;SDS011;56321;47.662;8.878;2023-02-01T08:56:43;14.47;;;6.83;;
69207;SDS011;56321;47.662;8.878;2023-02-01T08:59:08;15.67;;;6.83;;
69207;SDS011;56321;47.662;8.878;2023-02-01T09:01:34;14.60;;;6.47;;
69207;SDS011;56321;47.662;8.878;2023-02-01T09:03:59;14.77;;;6.50;;
69207;SDS011;56321;47.662;8.878;2023-02-01T09:06:24;14.37;;;6.90;;
69207;SDS011;56321;47.662;8.878;2023-02-01T09:08:50;14.83;;;6.30;;
69207;SDS011;56321;47.662;8.878;2023-02-01T09:11:16;12.37;;;5.73;;
69207;SDS011;56321;47.662;8.878;2023-02-01T09:13:44;14.18;;;6.20;;
69207;SDS011;56321;47.662;8.878;2023-02-01T09:16:09;15.33;;;6.40;;
69207;SDS011;56321;47.662;8.878;2023-02-01T09:18:35;14.55;;;6.50;;
69207;SDS011;56321;47.662;8.878;2023-02-01T09:21:03;13.90;;;6.20;;
69207;SDS011;56321;47.662;8.878;2023-02-01T09:23:30;14.07;;;6.10;;
69207;SDS011;56321;47.662;8.878;2023-02-01T09:25:58;14.17;;;5.93;;
69207;SDS011;56321;47.662;8.878;2023-02-01T09:28:24;14.03;;;5.90;;
69207;SDS011;56321;47.662;8.878;2023-02-01T09:30:54;13.55;;;5.85;;
69207;SDS011;56321;47.662;8.878;2023-02-01T09:33:20;13.47;;;5.53;;
69207;SDS011;56321;47.662;8.878;2023-02-01T09:35:46;14.55;;;5.82;;
69207;SDS011;56321;47.662;8.878;2023-02-01T09:38:11;13.60;;;5.93;;
69207;SDS011;56321;47.662;8.878;2023-02-01T09:40:39;14.73;;;5.77;;
69207;SDS011;56321;47.662;8.878;2023-02-01T09:46:19;12.75;;;5.28;;
69207;SDS011;56321;47.662;8.878;2023-02-01T09:48:48;11.73;;;4.95;;
69207;SDS011;56321;47.662;8.878;2023-02-01T09:51:19;11.77;;;5.30;;
69207;SDS011;56321;47.662;8.878;2023-02-01T09:53:51;11.70;;;4.70;;
69207;SDS011;56321;47.662;8.878;2023-02-01T09:56:51;13.40;;;4.97;;
69207;SDS011;56321;47.662;8.878;2023-02-01T10:02:11;13.13;;;4.60;;
69207;SDS011;56321;47.662;8.878;2023-02-01T10:04:39;11.23;;;4.90;;
69207;SDS011;56321;47.662;8.878;2023-02-01T10:20:20;10.88;;;4.15;;
69207;SDS011;56321;47.662;8.878;2023-02-01T10:28:34;9.93;;;3.70;;
69207;SDS011;56321;47.662;8.878;2023-02-01T10:31:02;9.27;;;3.47;;
69207;SDS011;56321;47.662;8.878;2023-02-01T10:33:38;10.65;;;3.90;;
69207;SDS011;56321;47.662;8.878;2023-02-01T10:38:42;8.93;;;3.30;;
69207;SDS011;56321;47.662;8.878;2023-02-01T10:41:12;9.35;;;3.38;;
69207;SDS011;56321;47.662;8.878;2023-02-01T10:43:39;10.20;;;3.60;;
69207;SDS011;56321;47.662;8.878;2023-02-01T10:46:06;9.65;;;3.28;;
69207;SDS011;56321;47.662;8.878;2023-02-01T10:48:32;8.07;;;3.00;;
69207;SDS011;56321;47.662;8.878;2023-02-01T10:51:00;10.03;;;3.23;;
69207;SDS011;56321;47.662;8.878;2023-02-01T10:53:55;8.85;;;3.22;;
69207;SDS011;56321;47.662;8.878;2023-02-01T10:56:26;8.50;;;3.08;;
69207;SDS011;56321;47.662;8.878;2023-02-01T10:58:59;8.60;;;3.15;;
69207;SDS011;56321;47.662;8.878;2023-02-01T11:01:41;8.43;;;3.40;;
69207;SDS011;56321;47.662;8.878;2023-02-01T11:04:10;7.60;;;2.93;;
69207;SDS011;56321;47.662;8.878;2023-02-01T11:06:52;8.63;;;2.88;;
69207;SDS011;56321;47.662;8.878;2023-02-01T11:09:29;7.25;;;2.88;;
69207;SDS011;56321;47.662;8.878;2023-02-01T11:11:58;7.03;;;3.10;;
69207;SDS011;56321;47.662;8.878;2023-02-01T11:17:00;6.93;;;3.03;;
69207;SDS011;56321;47.662;8.878;2023-02-01T11:19:27;6.97;;;3.10;;
69207;SDS011;56321;47.662;8.878;2023-02-01T11:21:54;7.43;;;3.20;;
69207;SDS011;56321;47.662;8.878;2023-02-01T11:24:23;7.03;;;2.97;;
69207;SDS011;56321;47.662;8.878;2023-02-01T11:26:54;6.78;;;2.90;;
69207;SDS011;56321;47.662;8.878;2023-02-01T11:29:21;6.80;;;3.17;;
69207;SDS011;56321;47.662;8.878;2023-02-01T11:31:53;7.28;;;3.30;;
69207;SDS011;56321;47.662;8.878;2023-02-01T11:34:22;7.88;;;3.00;;
69207;SDS011;56321;47.662;8.878;2023-02-01T11:36:51;6.68;;;2.80;;
69207;SDS011;56321;47.662;8.878;2023-02-01T11:39:23;6.65;;;2.50;;
69207;SDS011;56321;47.662;8.878;2023-02-01T11:41:55;6.53;;;2.53;;
69207;SDS011;56321;47.662;8.878;2023-02-01T11:44:29;6.57;;;2.63;;
69207;SDS011;56321;47.662;8.878;2023-02-01T11:46:55;7.47;;;2.80;;
69207;SDS011;56321;47.662;8.878;2023-02-01T11:49:22;7.13;;;2.43;;
69207;SDS011;56321;47.662;8.878;2023-02-01T11:54:24;8.00;;;2.70;;
69207;SDS011;56321;47.662;8.878;2023-02-01T11:57:20;6.85;;;2.80;;
69207;SDS011;56321;47.662;8.878;2023-02-01T12:00:06;8.27;;;3.13;;
69207;SDS011;56321;47.662;8.878;2023-02-01T12:05:54;7.20;;;2.70;;
69207;SDS011;56321;47.662;8.878;2023-02-01T12:13:52;7.50;;;2.90;;
69207;SDS011;56321;47.662;8.878;2023-02-01T12:16:29;7.10;;;2.90;;
69207;SDS011;56321;47.662;8.878;2023-02-01T12:21:54;9.02;;;3.22;;
69207;SDS011;56321;47.662;8.878;2023-02-01T12:30:21;8.23;;;2.70;;
69207;SDS011;56321;47.662;8.878;2023-02-01T12:33:01;7.50;;;2.60;;
69207;SDS011;56321;47.662;8.878;2023-02-01T12:35:44;9.35;;;2.60;;
69207;SDS011;56321;47.662;8.878;2023-02-01T12:46:05;8.43;;;2.50;;
69207;SDS011;56321;47.662;8.878;2023-02-01T12:48:39;8.80;;;2.50;;
69207;SDS011;56321;47.662;8.878;2023-02-01T12:51:17;6.70;;;1.83;;
69207;SDS011;56321;47.662;8.878;2023-02-01T12:53:55;8.20;;;2.13;;
69207;SDS011;56321;47.662;8.878;2023-02-01T12:59:16;7.32;;;1.65;;
69207;SDS011;56321;47.662;8.878;2023-02-01T13:02:11;7.18;;;1.50;;
69207;SDS011;56321;47.662;8.878;2023-02-01T13:04:53;7.60;;;1.50;;
69207;SDS011;56321;47.662;8.878;2023-02-01T13:07:42;7.18;;;1.30;;
69207;SDS011;56321;47.662;8.878;2023-02-01T13:10:17;6.83;;;1.30;;
69207;SDS011;56321;47.662;8.878;2023-02-01T13:13:08;9.25;;;1.15;;
69207;SDS011;56321;47.662;8.878;2023-02-01T13:18:43;8.30;;;1.25;;
69207;SDS011;56321;47.662;8.878;2023-02-01T13:21:21;7.20;;;1.30;;
69207;SDS011;56321;47.662;8.878;2023-02-01T13:23:50;7.53;;;1.17;;
69207;SDS011;56321;47.662;8.878;2023-02-01T13:26:17;7.15;;;1.30;;
69207;SDS011;56321;47.662;8.878;2023-02-01T13:28:44;7.33;;;1.37;;
69207;SDS011;56321;47.662;8.878;2023-02-01T13:33:59;6.88;;;1.48;;
69207;SDS011;56321;47.662;8.878;2023-02-01T13:39:34;9.10;;;1.65;;
69207;SDS011;56321;47.662;8.878;2023-02-01T13:42:52;10.50;;;1.63;;
69207;SDS011;56321;47.662;8.878;2023-02-01T13:45:21;9.00;;;1.60;;
69207;SDS011;56321;47.662;8.878;2023-02-01T13:47:54;8.98;;;1.33;;
69207;SDS011;56321;47.662;8.878;2023-02-01T13:50:30;6.78;;;1.40;;
69207;SDS011;56321;47.662;8.878;2023-02-01T13:56:09;9.47;;;1.40;;
69207;SDS011;56321;47.662;8.878;2023-02-01T13:58:40;7.45;;;1.13;;
69207;SDS011;56321;47.662;8.878;2023-02-01T14:03:48;8.40;;;1.30;;
69207;SDS011;56321;47.662;8.878;2023-02-01T14:16:40;7.45;;;1.30;;
69207;SDS011;56321;47.662;8.878;2023-02-01T14:19:19;9.07;;;1.20;;
69207;SDS011;56321;47.662;8.878;2023-02-01T14:21:51;6.97;;;1.30;;
69207;SDS011;56321;47.662;8.878;2023-02-01T14:24:36;10.45;;;1.30;;
69207;SDS011;56321;47.662;8.878;2023-02-01T14:29:37;8.20;;;1.20;;
69207;SDS011;56321;47.662;8.878;2023-02-01T14:47:49;9.88;;;1.60;;
69207;SDS011;56321;47.662;8.878;2023-02-01T14:55:43;12.07;;;2.60;;
69207;SDS011;56321;47.662;8.878;2023-02-01T14:58:41;10.98;;;1.90;;
69207;SDS011;56321;47.662;8.878;2023-02-01T15:01:17;8.02;;;1.60;;
69207;SDS011;56321;47.662;8.878;2023-02-01T15:06:22;8.77;;;1.33;;
69207;SDS011;56321;47.662;8.878;2023-02-01T15:08:52;7.10;;;1.30;;
69207;SDS011;56321;47.662;8.878;2023-02-01T15:11:53;9.48;;;1.63;;
69207;SDS011;56321;47.662;8.878;2023-02-01T15:14:23;8.63;;;1.50;;
69207;SDS011;56321;47.662;8.878;2023-02-01T15:16:49;8.73;;;1.30;;
69207;SDS011;56321;47.662;8.878;2023-02-01T15:19:24;11.05;;;2.20;;
69207;SDS011;56321;47.662;8.878;2023-02-01T15:21:52;8.73;;;1.63;;
69207;SDS011;56321;47.662;8.878;2023-02-01T15:24:23;8.37;;;1.63;;
69207;SDS011;56321;47.662;8.878;2023-02-01T15:26:51;8.57;;;1.60;;
69207;SDS011;56321;47.662;8.878;2023-02-01T15:29:18;7.95;;;1.52;;
69207;SDS011;56321;47.662;8.878;2023-02-01T15:31:46;10.40;;;1.50;;
69207;SDS011;56321;47.662;8.878;2023-02-01T15:34:16;9.32;;;1.55;;
69207;SDS011;56321;47.662;8.878;2023-02-01T15:36:43;7.40;;;1.53;;
69207;SDS011;56321;47.662;8.878;2023-02-01T15:39:19;7.47;;;1.63;;
69207;SDS011;56321;47.662;8.878;2023-02-01T15:44:44;9.40;;;1.70;;
69207;SDS011;56321;47.662;8.878;2023-02-01T15:47:22;8.82;;;1.45;;
69207;SDS011;56321;47.662;8.878;2023-02-01T15:49:51;9.30;;;1.63;;
69207;SDS011;56321;47.662;8.878;2023-02-01T15:52:23;9.20;;;1.50;;
69207;SDS011;56321;47.662;8.878;2023-02-01T15:54:53;9.63;;;1.65;;
69207;SDS011;56321;47.662;8.878;2023-02-01T15:57:23;8.25;;;1.65;;
69207;SDS011;56321;47.662;8.878;2023-02-01T15:59:56;8.02;;;1.40;;
69207;SDS011;56321;47.662;8.878;2023-02-01T16:02:27;7.47;;;1.40;;
69207;SDS011;56321;47.662;8.878;2023-02-01T16:05:21;9.25;;;1.60;;
69207;SDS011;56321;47.662;8.878;2023-02-01T16:08:15;7.40;;;1.58;;
69207;SDS011;56321;47.662;8.878;2023-02-01T16:10:42;9.18;;;1.40;;
69207;SDS011;56321;47.662;8.878;2023-02-01T16:13:10;9.30;;;1.40;;
69207;SDS011;56321;47.662;8.878;2023-02-01T16:15:36;10.20;;;1.80;;
69207;SDS011;56321;47.662;8.878;2023-02-01T16:18:02;7.85;;;1.38;;
69207;SDS011;56321;47.662;8.878;2023-02-01T16:20:27;9.07;;;1.97;;
69207;SDS011;56321;47.662;8.878;2023-02-01T16:22:54;6.97;;;1.40;;
69207;SDS011;56321;47.662;8.878;2023-02-01T16:25:19;7.87;;;1.30;;
69207;SDS011;56321;47.662;8.878;2023-02-01T16:27:45;7.90;;;1.37;;
69207;SDS011;56321;47.662;8.878;2023-02-01T16:30:10;8.23;;;1.35;;
69207;SDS011;56321;47.662;8.878;2023-02-01T16:32:36;10.40;;;1.80;;
69207;SDS011;56321;47.662;8.878;2023-02-01T16:35:03;8.95;;;1.50;;
69207;SDS011;56321;47.662;8.878;2023-02-01T16:37:30;7.18;;;1.40;;
69207;SDS011;56321;47.662;8.878;2023-02-01T16:39:57;8.63;;;1.80;;
69207;SDS011;56321;47.662;8.878;2023-02-01T16:42:22;9.63;;;1.40;;
69207;SDS011;56321;47.662;8.878;2023-02-01T16:44:47;8.03;;;1.80;;
69207;SDS011;56321;47.662;8.878;2023-02-01T16:47:15;8.20;;;1.30;;
69207;SDS011;56321;47.662;8.878;2023-02-01T16:49:45;9.73;;;1.48;;
69207;SDS011;56321;47.662;8.878;2023-02-01T16:52:14;10.10;;;1.45;;
69207;SDS011;56321;47.662;8.878;2023-02-01T16:54:41;6.30;;;1.10;;
69207;SDS011;56321;47.662;8.878;2023-02-01T16:57:10;9.10;;;1.50;;
69207;SDS011;56321;47.662;8.878;2023-02-01T16:59:37;7.50;;;1.15;;
69207;SDS011;56321;47.662;8.878;2023-02-01T17:02:03;6.03;;;1.20;;
69207;SDS011;56321;47.662;8.878;2023-02-01T17:04:28;6.23;;;1.10;;
69207;SDS011;56321;47.662;8.878;2023-02-01T17:06:53;8.13;;;1.43;;
69207;SDS011;56321;47.662;8.878;2023-02-01T17:09:19;7.63;;;1.13;;
69207;SDS011;56321;47.662;8.878;2023-02-01T17:11:45;7.53;;;1.10;;
69207;SDS011;56321;47.662;8.878;2023-02-01T17:14:15;9.43;;;1.60;;
69207;SDS011;56321;47.662;8.878;2023-02-01T17:16:42;9.73;;;1.58;;
69207;SDS011;56321;47.662;8.878;2023-02-01T17:19:16;8.63;;;1.38;;
69207;SDS011;56321;47.662;8.878;2023-02-01T17:21:46;7.88;;;1.30;;
69207;SDS011;56321;47.662;8.878;2023-02-01T17:24:16;9.63;;;1.52;;
69207;SDS011;56321;47.662;8.878;2023-02-01T17:26:43;11.23;;;1.40;;